Mississippi Star — 9HA2441 — position and weather

sailwx.info

Track history (hours):
 
Tides and Currents Weather Stations Pressure Air Temp Water Temp Dewpoint Dewpoint Depression Visibility Wind Speed Wind Dir Waves Ship Positions

Mississippi Star

Last reported at 2018-Apr-24 16:29 UTC. Time now 2018-Apr-24 16:41 UTC.
Position N 51°40' E 002°30'.

Length 128 m; draft 6 m.

Type: Ship. MMSI: 248621000.

Date/timePositionNaut miles runAvg speedWind from/ knotsBaromVisibWave heightAir tempDewpointWater temp
2018-Apr-24 16:29N 51°40' E 002°30'511.2
2018-Apr-24 16:01N 51°36' E 002°25'611.1
2018-Apr-24 15:30N 51°31' E 002°20'511.1
2018-Apr-24 15:01N 51°27' E 002°14'511.0
2018-Apr-24 14:30N 51°22' E 002°10'611.1
2018-Apr-24 14:00N 51°17' E 002°06'510.9
2018-Apr-24 13:30N 51°13' E 002°01'511.0
2018-Apr-24 13:01N 51°10' E 001°54'510.9
2018-Apr-24 12:30N 51°07' E 001°46'511.0
2018-Apr-24 12:00N 51°03' E 001°40'611.3
2018-Apr-24 11:30N 50°59' E 001°33'2011.8
2018-Apr-24 09:50N 50°42' E 001°19'4412.1
2018-Apr-24 06:14N 50°22' E 000°17'312.7
2018-Apr-24 06:00N 50°21' E 000°13'612.9
2018-Apr-24 05:30N 50°20' E 000°03'713.2
2018-Apr-24 05:00N 50°18' W 000°07'713.6
2018-Apr-24 04:30N 50°17' W 000°17'713.9
2018-Apr-24 04:00N 50°15' W 000°28'814.3
2018-Apr-24 03:29N 50°13' W 000°39'814.7
2018-Apr-24 02:56N 50°11' W 000°51'614.8
2018-Apr-24 02:30N 50°09' W 001°01'715.0
2018-Apr-24 02:01N 50°07' W 001°12'714.9
2018-Apr-24 01:31N 50°05' W 001°23'714.8
2018-Apr-24 01:00N 50°03' W 001°34'714.4
2018-Apr-24 00:30N 50°01' W 001°45'714.1
2018-Apr-24 00:00N 49°59' W 001°56'713.7
2018-Apr-23 23:30N 49°57' W 002°06'912.9
2018-Apr-23 22:48N 49°55' W 002°19'7011.4
2018-Apr-23 16:38N 49°26' W 003°58'1112.2
2018-Apr-23 15:45N 49°20' W 004°12'712.5
2018-Apr-23 15:10N 49°16' W 004°22'1512.5
2018-Apr-23 13:57N 49°08' W 004°41'6312.0
2018-Apr-23 08:46N 48°24' W 005°48'412.3
2018-Apr-23 08:27N 48°20' W 005°46'612.5
2018-Apr-23 08:00N 48°15' W 005°44'9 6.7
2018-Apr-23 06:38N 48°06' W 005°43'18 8.8
2018-Apr-23 04:33N 47°53' W 005°23'212.4
2018-Apr-23 04:23N 47°52' W 005°20'712.4
2018-Apr-23 03:51N 47°48' W 005°13'1012.2
2018-Apr-23 03:02N 47°42' W 005°01'411.2
2018-Apr-23 02:39N 47°39' W 004°56'212.2
2018-Apr-23 02:29N 47°38' W 004°54'611.9
2018-Apr-23 01:59N 47°35' W 004°46'1511.5
2018-Apr-23 00:41N 47°26' W 004°28'311.6
2018-Apr-23 00:28N 47°25' W 004°25'611.5
2018-Apr-22 23:58N 47°22' W 004°18'511.4
2018-Apr-22 23:30N 47°19' W 004°11'611.4
2018-Apr-22 22:59N 47°15' W 004°05'611.6
2018-Apr-22 22:30N 47°12' W 003°58'611.5
2018-Apr-22 21:57N 47°09' W 003°50'511.6
2018-Apr-22 21:30N 47°06' W 003°44'611.5
2018-Apr-22 21:00N 47°02' W 003°37'611.6
2018-Apr-22 20:30N 46°59' W 003°30'611.8
2018-Apr-22 20:00N 46°56' W 003°22'611.7
2018-Apr-22 19:30N 46°53' W 003°15'611.5
2018-Apr-22 19:00N 46°49' W 003°08'611.7
2018-Apr-22 18:30N 46°46' W 003°01'611.8
2018-Apr-22 18:00N 46°43' W 002°54'611.5
2018-Apr-22 17:30N 46°39' W 002°47'911.8
2018-Apr-22 16:47N 46°35' W 002°37'311.7
2018-Apr-22 16:30N 46°33' W 002°33'611.8
2018-Apr-22 16:00N 46°30' W 002°26'611.9
2018-Apr-22 15:30N 46°26' W 002°19'612.3
2018-Apr-22 15:00N 46°23' W 002°11'612.2
2018-Apr-22 14:30N 46°19' W 002°04'612.0
2018-Apr-22 14:00N 46°16' W 001°57'612.0
2018-Apr-22 13:30N 46°12' W 001°50'612.1
2018-Apr-22 13:00N 46°09' W 001°43'612.2
2018-Apr-22 12:30N 46°08' W 001°34'713.1
2018-Apr-22 12:00N 46°07' W 001°25'612.5
2018-Apr-22 11:30N 46°06' W 001°16'3 6.4
2018-Apr-22 11:00N 46°09' W 001°14'0 0.0
2018-Apr-22 10:30N 46°09' W 001°14'0 0.0
2018-Apr-22 10:00N 46°09' W 001°14'0 0.0
2018-Apr-22 09:30N 46°09' W 001°14'0 0.0
2018-Apr-22 08:59N 46°09' W 001°14'0 0.0
2018-Apr-22 08:30N 46°09' W 001°14'0 0.0
2018-Apr-22 08:00N 46°09' W 001°14'0 0.0
2018-Apr-22 07:29N 46°09' W 001°14'0 0.0
2018-Apr-22 07:00N 46°09' W 001°14'0 0.0
2018-Apr-22 06:29N 46°09' W 001°14'0 0.0
2018-Apr-22 06:00N 46°09' W 001°14'0 0.0
2018-Apr-22 05:30N 46°09' W 001°14'0 0.0
2018-Apr-22 05:00N 46°09' W 001°14'0 0.0
2018-Apr-22 04:30N 46°09' W 001°14'0 0.0
2018-Apr-22 04:00N 46°09' W 001°14'0 0.0
2018-Apr-22 03:30N 46°09' W 001°14'0 0.0
2018-Apr-22 03:00N 46°09' W 001°14'0 0.0
2018-Apr-22 02:30N 46°09' W 001°14'0 0.0
2018-Apr-22 02:00N 46°09' W 001°14'0 0.0
2018-Apr-22 01:30N 46°09' W 001°14'0 0.0
2018-Apr-22 01:00N 46°09' W 001°14'0 0.0
2018-Apr-22 00:30N 46°09' W 001°14'0 0.0
2018-Apr-21 23:59N 46°09' W 001°14'0 0.0
2018-Apr-21 23:30N 46°09' W 001°14'0 0.0
2018-Apr-21 23:00N 46°09' W 001°14'0 0.0
2018-Apr-21 22:30N 46°09' W 001°14'0 0.0
2018-Apr-21 22:00N 46°09' W 001°14'0 0.0
2018-Apr-21 21:29N 46°09' W 001°14'0 0.0
2018-Apr-21 20:59N 46°09' W 001°14'0 0.0
2018-Apr-21 20:30N 46°09' W 001°14'0 0.0
2018-Apr-21 20:00N 46°09' W 001°14'0 0.0
2018-Apr-21 19:29N 46°09' W 001°14'0 0.0
2018-Apr-21 19:00N 46°09' W 001°14'0 0.0
2018-Apr-21 18:30N 46°09' W 001°14'0 0.0
2018-Apr-21 18:00N 46°09' W 001°14'0 0.0
2018-Apr-21 17:29N 46°09' W 001°14'0 0.0
2018-Apr-21 16:59N 46°09' W 001°14'0 0.0
2018-Apr-21 16:29N 46°09' W 001°14'0 0.0
2018-Apr-21 16:00N 46°09' W 001°14'0 0.0
2018-Apr-21 15:30N 46°09' W 001°14'0 0.0
2018-Apr-21 14:59N 46°09' W 001°14'0 0.0
2018-Apr-21 14:29N 46°09' W 001°14'0 0.0
2018-Apr-21 14:00N 46°09' W 001°14'0 0.0
2018-Apr-21 13:30N 46°09' W 001°14'0 0.0
2018-Apr-21 12:59N 46°09' W 001°14'0 0.0
2018-Apr-21 12:29N 46°09' W 001°14'0 0.0
2018-Apr-21 11:59N 46°09' W 001°14'0 0.0
2018-Apr-21 11:29N 46°09' W 001°14'0 0.0
2018-Apr-21 11:01N 46°09' W 001°14'0 0.0
2018-Apr-21 10:31N 46°09' W 001°14'2 4.2
2018-Apr-21 10:00N 46°07' W 001°15'4 9.0
2018-Apr-21 09:31N 46°06' W 001°21'611.3
2018-Apr-21 09:01N 46°07' W 001°29'611.6
2018-Apr-21 08:31N 46°07' W 001°38'611.2
2018-Apr-21 08:01N 46°10' W 001°45'611.9
2018-Apr-21 07:31N 46°15' W 001°50'612.0
2018-Apr-21 07:01N 46°18' W 001°57'5 9.9
2018-Apr-21 06:31N 46°21' W 002°03'510.6
2018-Apr-21 06:01N 46°24' W 002°10'611.9
2018-Apr-21 05:30N 46°27' W 002°17'611.7
2018-Apr-21 05:01N 46°30' W 002°25'611.8
2018-Apr-21 04:31N 46°33' W 002°31'611.8
2018-Apr-21 04:01N 46°37' W 002°38'611.7
2018-Apr-21 03:31N 46°40' W 002°45'611.9
2018-Apr-21 03:00N 46°44' W 002°52'611.5
2018-Apr-21 02:27N 46°47' W 003°00'611.6
2018-Apr-21 01:59N 46°49' W 003°07'511.6
2018-Apr-21 01:31N 46°52' W 003°14'611.7
2018-Apr-21 01:01N 46°56' W 003°21'611.8
2018-Apr-21 00:31N 46°59' W 003°29'711.6
2018-Apr-20 23:57N 47°02' W 003°37'511.6
2018-Apr-20 23:30N 47°05' W 003°43'711.7
2018-Apr-20 22:56N 47°09' W 003°51'511.7
2018-Apr-20 22:31N 47°12' W 003°57'712.0
2018-Apr-20 21:54N 47°17' W 004°05'512.2
2018-Apr-20 21:29N 47°20' W 004°11'3212.6
2018-Apr-20 18:56N 47°39' W 004°50'512.4
2018-Apr-20 18:30N 47°42' W 004°56'612.2
2018-Apr-20 18:01N 47°45' W 005°03'611.7
2018-Apr-20 17:31N 47°49' W 005°10'510.7
2018-Apr-20 17:00N 47°52' W 005°17'1210.6
2018-Apr-20 15:53N 47°59' W 005°31'910.6
2018-Apr-20 15:03N 48°06' W 005°39'111.3
2018-Apr-20 14:59N 48°06' W 005°40'1211.6
2018-Apr-20 13:58N 48°18' W 005°46'2512.2
2018-Apr-20 11:53N 48°42' W 005°56'3212.4
2018-Apr-20 09:19N 49°03' W 005°20'911.0
2018-Apr-20 08:30N 49°08' W 005°09'5 9.8
2018-Apr-20 07:57N 49°11' W 005°02'4 9.8
2018-Apr-20 07:30N 49°13' W 004°56'9 9.9
2018-Apr-20 06:35N 49°18' W 004°44'110.3
2018-Apr-20 06:30N 49°18' W 004°43'610.7
2018-Apr-20 05:56N 49°22' W 004°35'410.3
2018-Apr-20 05:30N 49°25' W 004°30'610.9
2018-Apr-20 05:00N 49°28' W 004°23'611.3
2018-Apr-20 04:31N 49°31' W 004°16'612.0
2018-Apr-20 04:00N 49°34' W 004°08'612.6
2018-Apr-20 03:30N 49°37' W 003°59'613.1
2018-Apr-20 03:00N 49°40' W 003°50'813.4
2018-Apr-20 02:23N 49°44' W 003°39'513.4
2018-Apr-20 02:01N 49°46' W 003°32'713.2
2018-Apr-20 01:31N 49°49' W 003°23'612.7
2018-Apr-20 01:01N 49°52' W 003°15'612.0
2018-Apr-20 00:31N 49°55' W 003°06'611.3
2018-Apr-20 00:00N 49°58' W 002°58'510.6
2018-Apr-19 23:30N 49°59' W 002°51'5 9.8
2018-Apr-19 23:01N 50°01' W 002°43'5 9.3
2018-Apr-19 22:30N 50°02' W 002°36'4 8.7
2018-Apr-19 22:01N 50°03' W 002°30'4 8.5
2018-Apr-19 21:30N 50°05' W 002°23'4 8.4
2018-Apr-19 21:00N 50°06' W 002°17'4 8.8
2018-Apr-19 20:29N 50°07' W 002°10'5 9.6
2018-Apr-19 20:00N 50°08' W 002°03'510.5
2018-Apr-19 19:31N 50°10' W 001°56'611.5
2018-Apr-19 19:00N 50°12' W 001°47'612.6
2018-Apr-19 18:30N 50°13' W 001°38'713.6
2018-Apr-19 18:00N 50°15' W 001°27'714.3
2018-Apr-19 17:30N 50°17' W 001°16'715.0
2018-Apr-19 17:00N 50°19' W 001°05'815.5
2018-Apr-19 16:31N 50°21' W 000°54'815.1
2018-Apr-19 16:00N 50°23' W 000°42'814.6
2018-Apr-19 15:29N 50°26' W 000°31'713.9
2018-Apr-19 15:01N 50°28' W 000°21'713.2
2018-Apr-19 14:30N 50°30' W 000°11'612.4
2018-Apr-19 14:00N 50°31' W 000°02'611.9
2018-Apr-19 13:30N 50°32' E 000°08'611.2
2018-Apr-19 13:00N 50°34' E 000°16'510.5
2018-Apr-19 12:30N 50°35' E 000°24'510.1
2018-Apr-19 12:01N 50°37' E 000°32'510.0
2018-Apr-19 11:30N 50°38' E 000°39'510.3
2018-Apr-19 11:00N 50°42' E 000°45'510.8
2018-Apr-19 10:30N 50°45' E 000°52'611.6
2018-Apr-19 10:00N 50°49' E 000°59'612.7
2018-Apr-19 09:30N 50°53' E 001°06'713.7
2018-Apr-19 09:00N 50°57' E 001°15'714.6
2018-Apr-19 08:30N 51°02' E 001°24'714.6
2018-Apr-19 08:00N 51°07' E 001°33'713.8
2018-Apr-19 07:30N 51°11' E 001°41'612.8
2018-Apr-19 07:00N 51°16' E 001°48'713.1
2018-Apr-19 06:30N 51°22' E 001°53'612.4
2018-Apr-19 06:00N 51°27' E 001°58'510.9
2018-Apr-19 05:30N 51°31' E 002°04'510.2
2018-Apr-19 05:00N 51°35' E 002°09'510.2
2018-Apr-19 04:30N 51°39' E 002°14'5 9.8
2018-Apr-19 04:00N 51°42' E 002°20'5 9.6
2018-Apr-19 03:30N 51°46' E 002°25'5 9.7
2018-Apr-19 02:58N 51°50' E 002°30'510.0
2018-Apr-19 02:26N 51°54' E 002°36'1210.8
2018-Apr-19 01:20N 52°02' E 002°50'411.9
2018-Apr-19 00:58N 52°02' E 002°58'612.2
2018-Apr-19 00:29N 52°02' E 003°07'612.3
2018-Apr-18 23:59N 52°03' E 003°17'612.6
2018-Apr-18 23:29N 52°03' E 003°27'612.8
2018-Apr-18 23:00N 52°03' E 003°37'612.9
2018-Apr-18 22:30N 52°03' E 003°48'611.7
2018-Apr-18 22:00N 52°01' E 003°57'713.2
2018-Apr-18 21:30N 51°59' E 004°07'612.8
2018-Apr-18 21:00N 51°55' E 004°15'2 4.2
2018-Apr-18 20:30N 51°53' E 004°16'0 0.4
2018-Apr-18 19:59N 51°53' E 004°16'0 0.0
2018-Apr-18 19:29N 51°53' E 004°16'0 0.0
2018-Apr-18 18:38N 51°53' E 004°16'0 0.0
2018-Apr-18 18:23N 51°53' E 004°16'0 0.0
2018-Apr-18 17:59N 51°53' E 004°16'0 0.0
2018-Apr-18 17:20N 51°53' E 004°16'0 0.0
2018-Apr-18 16:53N 51°53' E 004°16'0 0.0
2018-Apr-18 16:26N 51°53' E 004°16'0 0.0
2018-Apr-18 15:50N 51°53' E 004°16'0 0.0
2018-Apr-18 15:20N 51°53' E 004°16'0 0.0
2018-Apr-18 13:50N 51°53' E 004°16'0 0.0
2018-Apr-18 12:32N 51°53' E 004°16'0 0.0
2018-Apr-18 09:32N 51°53' E 004°16'0 0.0
2018-Apr-18 09:20N 51°53' E 004°16'0 0.0
2018-Apr-18 08:56N 51°53' E 004°16'0 0.0
2018-Apr-18 08:20N 51°53' E 004°16'0 0.0
2018-Apr-18 06:05N 51°53' E 004°16'0 0.0
2018-Apr-18 05:53N 51°53' E 004°16'0 0.0
2018-Apr-18 05:20N 51°53' E 004°16'0 0.0
2018-Apr-18 04:50N 51°53' E 004°16'0 0.0
2018-Apr-18 04:23N 51°53' E 004°16'0 0.0
2018-Apr-18 03:59N 51°53' E 004°16'0 0.0
2018-Apr-18 03:29N 51°53' E 004°16'0 0.0
2018-Apr-18 02:59N 51°53' E 004°16'0 0.0
2018-Apr-18 01:11N 51°53' E 004°16'0 0.0
2018-Apr-18 00:56N 51°53' E 004°16'0 0.0
2018-Apr-17 23:08N 51°53' E 004°16'0 0.2
2018-Apr-17 22:56N 51°53' E 004°16'0 0.0
2018-Apr-17 22:14N 51°53' E 004°16'0 0.0
2018-Apr-17 21:56N 51°53' E 004°16'0 0.0
2018-Apr-17 21:23N 51°53' E 004°16'0 0.0
2018-Apr-17 20:47N 51°53' E 004°16'0 0.0
2018-Apr-17 20:29N 51°53' E 004°16'0 0.0
2018-Apr-17 19:56N 51°53' E 004°16'0 0.0
2018-Apr-17 19:26N 51°53' E 004°16'0 0.0
2018-Apr-17 18:59N 51°53' E 004°16'0 0.0
2018-Apr-17 18:29N 51°53' E 004°16'0 0.0
2018-Apr-17 17:44N 51°53' E 004°16'0 0.0
2018-Apr-17 17:29N 51°53' E 004°16'0 0.0
2018-Apr-17 16:50N 51°53' E 004°16'0 0.0
2018-Apr-17 16:26N 51°53' E 004°16'0 0.0
2018-Apr-17 15:56N 51°53' E 004°16'0 0.0
2018-Apr-17 15:02N 51°53' E 004°16'0 0.1
2018-Apr-17 14:56N 51°53' E 004°16'0 0.0
2018-Apr-17 14:07N 51°53' E 004°16'0 0.0
2018-Apr-17 13:50N 51°53' E 004°16'0 0.0
2018-Apr-17 13:20N 51°53' E 004°16'0 0.0
2018-Apr-17 12:56N 51°53' E 004°16'0 0.0
2018-Apr-17 12:07N 51°53' E 004°16'0 0.0
2018-Apr-17 11:55N 51°53' E 004°16'0 0.0
2018-Apr-17 11:14N 51°53' E 004°16'0 0.0
2018-Apr-17 10:26N 51°53' E 004°16'0 0.0
2018-Apr-17 07:01N 51°53' E 004°16'0 0.0
2018-Apr-17 06:49N 51°53' E 004°16'0 0.0
2018-Apr-17 06:19N 51°53' E 004°16'0 0.0
2018-Apr-17 05:55N 51°53' E 004°16'0 0.0
2018-Apr-17 05:16N 51°53' E 004°16'0 0.0
2018-Apr-17 04:53N 51°53' E 004°16'0 0.0
2018-Apr-17 04:07N 51°53' E 004°16'0 0.0
2018-Apr-17 03:49N 51°53' E 004°16'0 0.0
2018-Apr-17 03:25N 51°53' E 004°16'0 0.0
2018-Apr-17 02:55N 51°53' E 004°16'0 0.0
2018-Apr-17 02:26N 51°53' E 004°16'0 0.0
2018-Apr-17 01:59N 51°53' E 004°16'0 0.0
2018-Apr-17 01:16N 51°53' E 004°16'0 0.0
2018-Apr-17 00:50N 51°53' E 004°16'0 0.0
2018-Apr-17 00:19N 51°53' E 004°16'0 0.0
2018-Apr-17 00:00N 51°53' E 004°16'1 2.0
2018-Apr-16 23:30N 51°53' E 004°18'2 3.9
2018-Apr-16 23:00N 51°55' E 004°15'4 8.8
2018-Apr-16 22:30N 51°57' E 004°10'5 9.5
2018-Apr-16 22:00N 51°59' E 004°03'510.4
2018-Apr-16 21:30N 51°59' E 003°54'5 9.5
2018-Apr-16 21:00N 51°58' E 003°47'2 3.2
2018-Apr-16 20:30N 51°57' E 003°46'0 0.1
2018-Apr-16 20:00N 51°57' E 003°46'0 0.0
2018-Apr-16 19:27N 51°57' E 003°46'0 0.2
2018-Apr-16 19:00N 51°57' E 003°46'0 0.1
2018-Apr-16 18:30N 51°57' E 003°46'0 0.0
2018-Apr-16 17:57N 51°57' E 003°46'0 0.0
2018-Apr-16 17:30N 51°57' E 003°46'0 0.0
2018-Apr-16 17:00N 51°57' E 003°46'0 0.0
2018-Apr-16 16:30N 51°57' E 003°46'0 0.0
2018-Apr-16 15:51N 51°57' E 003°46'0 0.0
2018-Apr-16 15:27N 51°57' E 003°46'0 0.0
2018-Apr-16 12:57N 51°57' E 003°46'0 0.0
2018-Apr-16 12:27N 51°57' E 003°46'0 0.1
2018-Apr-16 12:00N 51°57' E 003°46'0 0.0
2018-Apr-16 11:30N 51°57' E 003°46'0 0.2
2018-Apr-16 11:00N 51°57' E 003°46'0 0.1
2018-Apr-16 10:27N 51°57' E 003°46'0 0.0
2018-Apr-16 10:00N 51°57' E 003°46'0 0.0
2018-Apr-16 09:24N 51°57' E 003°46'0 0.0
2018-Apr-16 09:00N 51°57' E 003°46'0 0.1
2018-Apr-16 08:30N 51°57' E 003°46'0 0.0
2018-Apr-16 08:00N 51°57' E 003°46'0 0.0
2018-Apr-16 07:30N 51°57' E 003°46'0 0.3
2018-Apr-16 07:00N 51°57' E 003°46'0 0.1
2018-Apr-16 06:30N 51°57' E 003°46'0 0.1
2018-Apr-16 06:00N 51°57' E 003°46'0 0.0
2018-Apr-16 05:00N 51°57' E 003°46'0 0.0
2018-Apr-16 01:48N 51°57' E 003°46'0 0.0
2018-Apr-16 01:27N 51°57' E 003°46'0 0.0
2018-Apr-16 01:00N 51°57' E 003°46'0 0.0
2018-Apr-16 00:30N 51°57' E 003°46'0 0.1
2018-Apr-16 00:00N 51°57' E 003°46'0 0.2
2018-Apr-15 23:30N 51°57' E 003°46'0 0.0
2018-Apr-15 23:00N 51°57' E 003°46'0 0.1
2018-Apr-15 22:30N 51°57' E 003°46'0 0.0
2018-Apr-15 22:00N 51°57' E 003°46'0 0.1
2018-Apr-15 21:30N 51°57' E 003°46'0 0.1
2018-Apr-15 21:00N 51°57' E 003°46'0 0.0
2018-Apr-15 20:30N 51°57' E 003°46'0 0.0
2018-Apr-15 20:00N 51°57' E 003°46'0 0.0
2018-Apr-15 19:30N 51°57' E 003°46'0 0.0
2018-Apr-15 19:00N 51°57' E 003°46'0 0.0
2018-Apr-15 18:30N 51°57' E 003°46'0 0.1
2018-Apr-15 18:00N 51°57' E 003°46'0 0.2
2018-Apr-15 17:30N 51°57' E 003°46'0 0.0
2018-Apr-15 15:21N 51°57' E 003°46'0 0.0
2018-Apr-15 14:57N 51°57' E 003°46'0 0.0
2018-Apr-15 14:27N 51°57' E 003°46'0 0.0
2018-Apr-15 13:57N 51°57' E 003°46'0 0.0
2018-Apr-15 13:30N 51°57' E 003°46'0 0.0
2018-Apr-15 13:00N 51°57' E 003°46'0 0.0
2018-Apr-15 12:30N 51°57' E 003°46'0 0.0
2018-Apr-15 12:00N 51°57' E 003°46'0 0.1
2018-Apr-15 11:30N 51°57' E 003°46'0 0.1
2018-Apr-15 11:00N 51°57' E 003°46'0 0.1
2018-Apr-15 10:27N 51°57' E 003°46'0 0.1
2018-Apr-15 09:57N 51°57' E 003°46'0 0.0
2018-Apr-15 09:30N 51°57' E 003°46'0 0.0
2018-Apr-15 09:00N 51°57' E 003°46'0 0.0
2018-Apr-15 08:30N 51°57' E 003°46'0 0.0
2018-Apr-15 08:00N 51°57' E 003°46'0 0.0
2018-Apr-15 07:30N 51°57' E 003°46'0 0.0
2018-Apr-15 07:00N 51°57' E 003°46'0 0.0
2018-Apr-15 06:30N 51°57' E 003°46'0 0.0
2018-Apr-15 06:00N 51°57' E 003°46'0 0.1
2018-Apr-15 05:30N 51°57' E 003°46'0 0.2
2018-Apr-15 05:00N 51°57' E 003°46'0 0.0
2018-Apr-15 03:36N 51°57' E 003°46'0 0.0
2018-Apr-15 03:06N 51°57' E 003°46'0 0.0
2018-Apr-15 02:21N 51°57' E 003°46'0 0.0
2018-Apr-15 01:51N 51°57' E 003°46'0 0.0
2018-Apr-15 01:30N 51°57' E 003°46'0 0.0
2018-Apr-15 01:00N 51°57' E 003°46'0 0.0
2018-Apr-15 00:27N 51°57' E 003°46'0 0.0
2018-Apr-15 00:00N 51°57' E 003°46'0 0.1
2018-Apr-14 23:30N 51°57' E 003°46'0 0.1
2018-Apr-14 22:57N 51°57' E 003°46'0 0.1
2018-Apr-14 22:30N 51°57' E 003°46'0 0.0
2018-Apr-14 22:00N 51°57' E 003°46'0 0.0
2018-Apr-14 21:30N 51°57' E 003°46'0 0.0
2018-Apr-14 21:00N 51°57' E 003°46'0 0.0
2018-Apr-14 20:30N 51°57' E 003°46'0 0.0
2018-Apr-14 19:57N 51°57' E 003°46'0 0.0
2018-Apr-14 19:30N 51°57' E 003°46'0 0.1
2018-Apr-14 19:00N 51°57' E 003°46'0 0.0
2018-Apr-14 18:30N 51°57' E 003°46'0 0.0
2018-Apr-14 18:00N 51°57' E 003°46'0 0.0
2018-Apr-14 17:30N 51°57' E 003°46'0 0.0
2018-Apr-14 17:00N 51°57' E 003°46'0 0.2
2018-Apr-14 16:30N 51°57' E 003°46'  
Track history (hours):
 
Tides and Currents Weather Stations Pressure Air Temp Water Temp Dewpoint Dewpoint Depression Visibility Wind Speed Wind Dir Waves Ship Positions

Mississippi Star

Last reported at 2018-Apr-24 16:29 UTC. Time now 2018-Apr-24 16:41 UTC.
Position N 51°40' E 002°30'.

Length 128 m; draft 6 m.

Type: Ship. MMSI: 248621000.

Date/timePositionNaut miles runAvg speedWind from/ knotsBaromVisibWave heightAir tempDewpointWater temp
2018-Apr-24 16:29N 51°40' E 002°30'511.2
2018-Apr-24 16:01N 51°36' E 002°25'611.1
2018-Apr-24 15:30N 51°31' E 002°20'511.1
2018-Apr-24 15:01N 51°27' E 002°14'511.0
2018-Apr-24 14:30N 51°22' E 002°10'611.1
2018-Apr-24 14:00N 51°17' E 002°06'510.9
2018-Apr-24 13:30N 51°13' E 002°01'511.0
2018-Apr-24 13:01N 51°10' E 001°54'510.9
2018-Apr-24 12:30N 51°07' E 001°46'511.0
2018-Apr-24 12:00N 51°03' E 001°40'611.3
2018-Apr-24 11:30N 50°59' E 001°33'2011.8
2018-Apr-24 09:50N 50°42' E 001°19'4412.1
2018-Apr-24 06:14N 50°22' E 000°17'312.7
2018-Apr-24 06:00N 50°21' E 000°13'612.9
2018-Apr-24 05:30N 50°20' E 000°03'713.2
2018-Apr-24 05:00N 50°18' W 000°07'713.6
2018-Apr-24 04:30N 50°17' W 000°17'713.9
2018-Apr-24 04:00N 50°15' W 000°28'814.3
2018-Apr-24 03:29N 50°13' W 000°39'814.7
2018-Apr-24 02:56N 50°11' W 000°51'614.8
2018-Apr-24 02:30N 50°09' W 001°01'715.0
2018-Apr-24 02:01N 50°07' W 001°12'714.9
2018-Apr-24 01:31N 50°05' W 001°23'714.8
2018-Apr-24 01:00N 50°03' W 001°34'714.4
2018-Apr-24 00:30N 50°01' W 001°45'714.1
2018-Apr-24 00:00N 49°59' W 001°56'713.7
2018-Apr-23 23:30N 49°57' W 002°06'912.9
2018-Apr-23 22:48N 49°55' W 002°19'7011.4
2018-Apr-23 16:38N 49°26' W 003°58'1112.2
2018-Apr-23 15:45N 49°20' W 004°12'712.5
2018-Apr-23 15:10N 49°16' W 004°22'1512.5
2018-Apr-23 13:57N 49°08' W 004°41'6312.0
2018-Apr-23 08:46N 48°24' W 005°48'412.3
2018-Apr-23 08:27N 48°20' W 005°46'612.5
2018-Apr-23 08:00N 48°15' W 005°44'9 6.7
2018-Apr-23 06:38N 48°06' W 005°43'18 8.8
2018-Apr-23 04:33N 47°53' W 005°23'212.4
2018-Apr-23 04:23N 47°52' W 005°20'712.4
2018-Apr-23 03:51N 47°48' W 005°13'1012.2
2018-Apr-23 03:02N 47°42' W 005°01'411.2
2018-Apr-23 02:39N 47°39' W 004°56'212.2
2018-Apr-23 02:29N 47°38' W 004°54'611.9
2018-Apr-23 01:59N 47°35' W 004°46'1511.5
2018-Apr-23 00:41N 47°26' W 004°28'311.6
2018-Apr-23 00:28N 47°25' W 004°25'611.5
2018-Apr-22 23:58N 47°22' W 004°18'511.4
2018-Apr-22 23:30N 47°19' W 004°11'611.4
2018-Apr-22 22:59N 47°15' W 004°05'611.6
2018-Apr-22 22:30N 47°12' W 003°58'611.5
2018-Apr-22 21:57N 47°09' W 003°50'511.6
2018-Apr-22 21:30N 47°06' W 003°44'611.5
2018-Apr-22 21:00N 47°02' W 003°37'611.6
2018-Apr-22 20:30N 46°59' W 003°30'611.8
2018-Apr-22 20:00N 46°56' W 003°22'611.7
2018-Apr-22 19:30N 46°53' W 003°15'611.5
2018-Apr-22 19:00N 46°49' W 003°08'611.7
2018-Apr-22 18:30N 46°46' W 003°01'611.8
2018-Apr-22 18:00N 46°43' W 002°54'611.5
2018-Apr-22 17:30N 46°39' W 002°47'911.8
2018-Apr-22 16:47N 46°35' W 002°37'311.7
2018-Apr-22 16:30N 46°33' W 002°33'611.8
2018-Apr-22 16:00N 46°30' W 002°26'611.9
2018-Apr-22 15:30N 46°26' W 002°19'612.3
2018-Apr-22 15:00N 46°23' W 002°11'612.2
2018-Apr-22 14:30N 46°19' W 002°04'612.0
2018-Apr-22 14:00N 46°16' W 001°57'612.0
2018-Apr-22 13:30N 46°12' W 001°50'612.1
2018-Apr-22 13:00N 46°09' W 001°43'612.2
2018-Apr-22 12:30N 46°08' W 001°34'713.1
2018-Apr-22 12:00N 46°07' W 001°25'612.5
2018-Apr-22 11:30N 46°06' W 001°16'3 6.4
2018-Apr-22 11:00N 46°09' W 001°14'0 0.0
2018-Apr-22 10:30N 46°09' W 001°14'0 0.0
2018-Apr-22 10:00N 46°09' W 001°14'0 0.0
2018-Apr-22 09:30N 46°09' W 001°14'0 0.0
2018-Apr-22 08:59N 46°09' W 001°14'0 0.0
2018-Apr-22 08:30N 46°09' W 001°14'0 0.0
2018-Apr-22 08:00N 46°09' W 001°14'0 0.0
2018-Apr-22 07:29N 46°09' W 001°14'0 0.0
2018-Apr-22 07:00N 46°09' W 001°14'0 0.0
2018-Apr-22 06:29N 46°09' W 001°14'0 0.0
2018-Apr-22 06:00N 46°09' W 001°14'0 0.0
2018-Apr-22 05:30N 46°09' W 001°14'0 0.0
2018-Apr-22 05:00N 46°09' W 001°14'0 0.0
2018-Apr-22 04:30N 46°09' W 001°14'0 0.0
2018-Apr-22 04:00N 46°09' W 001°14'0 0.0
2018-Apr-22 03:30N 46°09' W 001°14'0 0.0
2018-Apr-22 03:00N 46°09' W 001°14'0 0.0
2018-Apr-22 02:30N 46°09' W 001°14'0 0.0
2018-Apr-22 02:00N 46°09' W 001°14'0 0.0
2018-Apr-22 01:30N 46°09' W 001°14'0 0.0
2018-Apr-22 01:00N 46°09' W 001°14'0 0.0
2018-Apr-22 00:30N 46°09' W 001°14'0 0.0
2018-Apr-21 23:59N 46°09' W 001°14'0 0.0
2018-Apr-21 23:30N 46°09' W 001°14'0 0.0
2018-Apr-21 23:00N 46°09' W 001°14'0 0.0
2018-Apr-21 22:30N 46°09' W 001°14'0 0.0
2018-Apr-21 22:00N 46°09' W 001°14'0 0.0
2018-Apr-21 21:29N 46°09' W 001°14'0 0.0
2018-Apr-21 20:59N 46°09' W 001°14'0 0.0
2018-Apr-21 20:30N 46°09' W 001°14'0 0.0
2018-Apr-21 20:00N 46°09' W 001°14'0 0.0
2018-Apr-21 19:29N 46°09' W 001°14'0 0.0
2018-Apr-21 19:00N 46°09' W 001°14'0 0.0
2018-Apr-21 18:30N 46°09' W 001°14'0 0.0
2018-Apr-21 18:00N 46°09' W 001°14'0 0.0
2018-Apr-21 17:29N 46°09' W 001°14'0 0.0
2018-Apr-21 16:59N 46°09' W 001°14'0 0.0
2018-Apr-21 16:29N 46°09' W 001°14'0 0.0
2018-Apr-21 16:00N 46°09' W 001°14'0 0.0
2018-Apr-21 15:30N 46°09' W 001°14'0 0.0
2018-Apr-21 14:59N 46°09' W 001°14'0 0.0
2018-Apr-21 14:29N 46°09' W 001°14'0 0.0
2018-Apr-21 14:00N 46°09' W 001°14'0 0.0
2018-Apr-21 13:30N 46°09' W 001°14'0 0.0
2018-Apr-21 12:59N 46°09' W 001°14'0 0.0
2018-Apr-21 12:29N 46°09' W 001°14'0 0.0
2018-Apr-21 11:59N 46°09' W 001°14'0 0.0
2018-Apr-21 11:29N 46°09' W 001°14'0 0.0
2018-Apr-21 11:01N 46°09' W 001°14'0 0.0
2018-Apr-21 10:31N 46°09' W 001°14'2 4.2
2018-Apr-21 10:00N 46°07' W 001°15'4 9.0
2018-Apr-21 09:31N 46°06' W 001°21'611.3
2018-Apr-21 09:01N 46°07' W 001°29'611.6
2018-Apr-21 08:31N 46°07' W 001°38'611.2
2018-Apr-21 08:01N 46°10' W 001°45'611.9
2018-Apr-21 07:31N 46°15' W 001°50'612.0
2018-Apr-21 07:01N 46°18' W 001°57'5 9.9
2018-Apr-21 06:31N 46°21' W 002°03'510.6
2018-Apr-21 06:01N 46°24' W 002°10'611.9
2018-Apr-21 05:30N 46°27' W 002°17'611.7
2018-Apr-21 05:01N 46°30' W 002°25'611.8
2018-Apr-21 04:31N 46°33' W 002°31'611.8
2018-Apr-21 04:01N 46°37' W 002°38'611.7
2018-Apr-21 03:31N 46°40' W 002°45'611.9
2018-Apr-21 03:00N 46°44' W 002°52'611.5
2018-Apr-21 02:27N 46°47' W 003°00'611.6
2018-Apr-21 01:59N 46°49' W 003°07'511.6
2018-Apr-21 01:31N 46°52' W 003°14'611.7
2018-Apr-21 01:01N 46°56' W 003°21'611.8
2018-Apr-21 00:31N 46°59' W 003°29'711.6
2018-Apr-20 23:57N 47°02' W 003°37'511.6
2018-Apr-20 23:30N 47°05' W 003°43'711.7
2018-Apr-20 22:56N 47°09' W 003°51'511.7
2018-Apr-20 22:31N 47°12' W 003°57'712.0
2018-Apr-20 21:54N 47°17' W 004°05'512.2
2018-Apr-20 21:29N 47°20' W 004°11'3212.6
2018-Apr-20 18:56N 47°39' W 004°50'512.4
2018-Apr-20 18:30N 47°42' W 004°56'612.2
2018-Apr-20 18:01N 47°45' W 005°03'611.7
2018-Apr-20 17:31N 47°49' W 005°10'510.7
2018-Apr-20 17:00N 47°52' W 005°17'1210.6
2018-Apr-20 15:53N 47°59' W 005°31'910.6
2018-Apr-20 15:03N 48°06' W 005°39'111.3
2018-Apr-20 14:59N 48°06' W 005°40'1211.6
2018-Apr-20 13:58N 48°18' W 005°46'2512.2
2018-Apr-20 11:53N 48°42' W 005°56'3212.4
2018-Apr-20 09:19N 49°03' W 005°20'911.0
2018-Apr-20 08:30N 49°08' W 005°09'5 9.8
2018-Apr-20 07:57N 49°11' W 005°02'4 9.8
2018-Apr-20 07:30N 49°13' W 004°56'9 9.9
2018-Apr-20 06:35N 49°18' W 004°44'110.3
2018-Apr-20 06:30N 49°18' W 004°43'610.7
2018-Apr-20 05:56N 49°22' W 004°35'410.3
2018-Apr-20 05:30N 49°25' W 004°30'610.9
2018-Apr-20 05:00N 49°28' W 004°23'611.3
2018-Apr-20 04:31N 49°31' W 004°16'612.0
2018-Apr-20 04:00N 49°34' W 004°08'612.6
2018-Apr-20 03:30N 49°37' W 003°59'613.1
2018-Apr-20 03:00N 49°40' W 003°50'813.4
2018-Apr-20 02:23N 49°44' W 003°39'513.4
2018-Apr-20 02:01N 49°46' W 003°32'713.2
2018-Apr-20 01:31N 49°49' W 003°23'612.7
2018-Apr-20 01:01N 49°52' W 003°15'612.0
2018-Apr-20 00:31N 49°55' W 003°06'611.3
2018-Apr-20 00:00N 49°58' W 002°58'510.6
2018-Apr-19 23:30N 49°59' W 002°51'5 9.8
2018-Apr-19 23:01N 50°01' W 002°43'5 9.3
2018-Apr-19 22:30N 50°02' W 002°36'4 8.7
2018-Apr-19 22:01N 50°03' W 002°30'4 8.5
2018-Apr-19 21:30N 50°05' W 002°23'4 8.4
2018-Apr-19 21:00N 50°06' W 002°17'4 8.8
2018-Apr-19 20:29N 50°07' W 002°10'5 9.6
2018-Apr-19 20:00N 50°08' W 002°03'510.5
2018-Apr-19 19:31N 50°10' W 001°56'611.5
2018-Apr-19 19:00N 50°12' W 001°47'612.6
2018-Apr-19 18:30N 50°13' W 001°38'713.6
2018-Apr-19 18:00N 50°15' W 001°27'714.3
2018-Apr-19 17:30N 50°17' W 001°16'715.0
2018-Apr-19 17:00N 50°19' W 001°05'815.5
2018-Apr-19 16:31N 50°21' W 000°54'815.1
2018-Apr-19 16:00N 50°23' W 000°42'814.6
2018-Apr-19 15:29N 50°26' W 000°31'713.9
2018-Apr-19 15:01N 50°28' W 000°21'713.2
2018-Apr-19 14:30N 50°30' W 000°11'612.4
2018-Apr-19 14:00N 50°31' W 000°02'611.9
2018-Apr-19 13:30N 50°32' E 000°08'611.2
2018-Apr-19 13:00N 50°34' E 000°16'510.5
2018-Apr-19 12:30N 50°35' E 000°24'510.1
2018-Apr-19 12:01N 50°37' E 000°32'510.0
2018-Apr-19 11:30N 50°38' E 000°39'510.3
2018-Apr-19 11:00N 50°42' E 000°45'510.8
2018-Apr-19 10:30N 50°45' E 000°52'611.6
2018-Apr-19 10:00N 50°49' E 000°59'612.7
2018-Apr-19 09:30N 50°53' E 001°06'713.7
2018-Apr-19 09:00N 50°57' E 001°15'714.6
2018-Apr-19 08:30N 51°02' E 001°24'714.6
2018-Apr-19 08:00N 51°07' E 001°33'713.8
2018-Apr-19 07:30N 51°11' E 001°41'612.8
2018-Apr-19 07:00N 51°16' E 001°48'713.1
2018-Apr-19 06:30N 51°22' E 001°53'612.4
2018-Apr-19 06:00N 51°27' E 001°58'510.9
2018-Apr-19 05:30N 51°31' E 002°04'510.2
2018-Apr-19 05:00N 51°35' E 002°09'510.2
2018-Apr-19 04:30N 51°39' E 002°14'5 9.8
2018-Apr-19 04:00N 51°42' E 002°20'5 9.6
2018-Apr-19 03:30N 51°46' E 002°25'5 9.7
2018-Apr-19 02:58N 51°50' E 002°30'510.0
2018-Apr-19 02:26N 51°54' E 002°36'1210.8
2018-Apr-19 01:20N 52°02' E 002°50'411.9
2018-Apr-19 00:58N 52°02' E 002°58'612.2
2018-Apr-19 00:29N 52°02' E 003°07'612.3
2018-Apr-18 23:59N 52°03' E 003°17'612.6
2018-Apr-18 23:29N 52°03' E 003°27'612.8
2018-Apr-18 23:00N 52°03' E 003°37'612.9
2018-Apr-18 22:30N 52°03' E 003°48'611.7
2018-Apr-18 22:00N 52°01' E 003°57'713.2
2018-Apr-18 21:30N 51°59' E 004°07'612.8
2018-Apr-18 21:00N 51°55' E 004°15'2 4.2
2018-Apr-18 20:30N 51°53' E 004°16'0 0.4
2018-Apr-18 19:59N 51°53' E 004°16'0 0.0
2018-Apr-18 19:29N 51°53' E 004°16'0 0.0
2018-Apr-18 18:38N 51°53' E 004°16'0 0.0
2018-Apr-18 18:23N 51°53' E 004°16'0 0.0
2018-Apr-18 17:59N 51°53' E 004°16'0 0.0
2018-Apr-18 17:20N 51°53' E 004°16'0 0.0
2018-Apr-18 16:53N 51°53' E 004°16'0 0.0
2018-Apr-18 16:26N 51°53' E 004°16'0 0.0
2018-Apr-18 15:50N 51°53' E 004°16'0 0.0
2018-Apr-18 15:20N 51°53' E 004°16'0 0.0
2018-Apr-18 13:50N 51°53' E 004°16'0 0.0
2018-Apr-18 12:32N 51°53' E 004°16'0 0.0
2018-Apr-18 09:32N 51°53' E 004°16'0 0.0
2018-Apr-18 09:20N 51°53' E 004°16'0 0.0
2018-Apr-18 08:56N 51°53' E 004°16'0 0.0
2018-Apr-18 08:20N 51°53' E 004°16'0 0.0
2018-Apr-18 06:05N 51°53' E 004°16'0 0.0
2018-Apr-18 05:53N 51°53' E 004°16'0 0.0
2018-Apr-18 05:20N 51°53' E 004°16'0 0.0
2018-Apr-18 04:50N 51°53' E 004°16'0 0.0
2018-Apr-18 04:23N 51°53' E 004°16'0 0.0
2018-Apr-18 03:59N 51°53' E 004°16'0 0.0
2018-Apr-18 03:29N 51°53' E 004°16'0 0.0
2018-Apr-18 02:59N 51°53' E 004°16'0 0.0
2018-Apr-18 01:11N 51°53' E 004°16'0 0.0
2018-Apr-18 00:56N 51°53' E 004°16'0 0.0
2018-Apr-17 23:08N 51°53' E 004°16'0 0.2
2018-Apr-17 22:56N 51°53' E 004°16'0 0.0
2018-Apr-17 22:14N 51°53' E 004°16'0 0.0
2018-Apr-17 21:56N 51°53' E 004°16'0 0.0
2018-Apr-17 21:23N 51°53' E 004°16'0 0.0
2018-Apr-17 20:47N 51°53' E 004°16'0 0.0
2018-Apr-17 20:29N 51°53' E 004°16'0 0.0
2018-Apr-17 19:56N 51°53' E 004°16'0 0.0
2018-Apr-17 19:26N 51°53' E 004°16'0 0.0
2018-Apr-17 18:59N 51°53' E 004°16'0 0.0
2018-Apr-17 18:29N 51°53' E 004°16'0 0.0
2018-Apr-17 17:44N 51°53' E 004°16'0 0.0
2018-Apr-17 17:29N 51°53' E 004°16'0 0.0
2018-Apr-17 16:50N 51°53' E 004°16'0 0.0
2018-Apr-17 16:26N 51°53' E 004°16'0 0.0
2018-Apr-17 15:56N 51°53' E 004°16'0 0.0
2018-Apr-17 15:02N 51°53' E 004°16'0 0.1
2018-Apr-17 14:56N 51°53' E 004°16'0 0.0
2018-Apr-17 14:07N 51°53' E 004°16'0 0.0
2018-Apr-17 13:50N 51°53' E 004°16'0 0.0
2018-Apr-17 13:20N 51°53' E 004°16'0 0.0
2018-Apr-17 12:56N 51°53' E 004°16'0 0.0
2018-Apr-17 12:07N 51°53' E 004°16'0 0.0
2018-Apr-17 11:55N 51°53' E 004°16'0 0.0
2018-Apr-17 11:14N 51°53' E 004°16'0 0.0
2018-Apr-17 10:26N 51°53' E 004°16'0 0.0
2018-Apr-17 07:01N 51°53' E 004°16'0 0.0
2018-Apr-17 06:49N 51°53' E 004°16'0 0.0
2018-Apr-17 06:19N 51°53' E 004°16'0 0.0
2018-Apr-17 05:55N 51°53' E 004°16'0 0.0
2018-Apr-17 05:16N 51°53' E 004°16'0 0.0
2018-Apr-17 04:53N 51°53' E 004°16'0 0.0
2018-Apr-17 04:07N 51°53' E 004°16'0 0.0
2018-Apr-17 03:49N 51°53' E 004°16'0 0.0
2018-Apr-17 03:25N 51°53' E 004°16'0 0.0
2018-Apr-17 02:55N 51°53' E 004°16'0 0.0
2018-Apr-17 02:26N 51°53' E 004°16'0 0.0
2018-Apr-17 01:59N 51°53' E 004°16'0 0.0
2018-Apr-17 01:16N 51°53' E 004°16'0 0.0
2018-Apr-17 00:50N 51°53' E 004°16'0 0.0
2018-Apr-17 00:19N 51°53' E 004°16'0 0.0
2018-Apr-17 00:00N 51°53' E 004°16'1 2.0
2018-Apr-16 23:30N 51°53' E 004°18'2 3.9
2018-Apr-16 23:00N 51°55' E 004°15'4 8.8
2018-Apr-16 22:30N 51°57' E 004°10'5 9.5
2018-Apr-16 22:00N 51°59' E 004°03'510.4
2018-Apr-16 21:30N 51°59' E 003°54'5 9.5
2018-Apr-16 21:00N 51°58' E 003°47'2 3.2
2018-Apr-16 20:30N 51°57' E 003°46'0 0.1
2018-Apr-16 20:00N 51°57' E 003°46'0 0.0
2018-Apr-16 19:27N 51°57' E 003°46'0 0.2
2018-Apr-16 19:00N 51°57' E 003°46'0 0.1
2018-Apr-16 18:30N 51°57' E 003°46'0 0.0
2018-Apr-16 17:57N 51°57' E 003°46'0 0.0
2018-Apr-16 17:30N 51°57' E 003°46'0 0.0
2018-Apr-16 17:00N 51°57' E 003°46'0 0.0
2018-Apr-16 16:30N 51°57' E 003°46'0 0.0
2018-Apr-16 15:51N 51°57' E 003°46'0 0.0
2018-Apr-16 15:27N 51°57' E 003°46'0 0.0
2018-Apr-16 12:57N 51°57' E 003°46'0 0.0
2018-Apr-16 12:27N 51°57' E 003°46'0 0.1
2018-Apr-16 12:00N 51°57' E 003°46'0 0.0
2018-Apr-16 11:30N 51°57' E 003°46'0 0.2
2018-Apr-16 11:00N 51°57' E 003°46'0 0.1
2018-Apr-16 10:27N 51°57' E 003°46'0 0.0
2018-Apr-16 10:00N 51°57' E 003°46'0 0.0
2018-Apr-16 09:24N 51°57' E 003°46'0 0.0
2018-Apr-16 09:00N 51°57' E 003°46'0 0.1
2018-Apr-16 08:30N 51°57' E 003°46'0 0.0
2018-Apr-16 08:00N 51°57' E 003°46'0 0.0
2018-Apr-16 07:30N 51°57' E 003°46'0 0.3
2018-Apr-16 07:00N 51°57' E 003°46'0 0.1
2018-Apr-16 06:30N 51°57' E 003°46'0 0.1
2018-Apr-16 06:00N 51°57' E 003°46'0 0.0
2018-Apr-16 05:00N 51°57' E 003°46'0 0.0
2018-Apr-16 01:48N 51°57' E 003°46'0 0.0
2018-Apr-16 01:27N 51°57' E 003°46'0 0.0
2018-Apr-16 01:00N 51°57' E 003°46'0 0.0
2018-Apr-16 00:30N 51°57' E 003°46'0 0.1
2018-Apr-16 00:00N 51°57' E 003°46'0 0.2
2018-Apr-15 23:30N 51°57' E 003°46'0 0.0
2018-Apr-15 23:00N 51°57' E 003°46'0 0.1
2018-Apr-15 22:30N 51°57' E 003°46'0 0.0
2018-Apr-15 22:00N 51°57' E 003°46'0 0.1
2018-Apr-15 21:30N 51°57' E 003°46'0 0.1
2018-Apr-15 21:00N 51°57' E 003°46'0 0.0
2018-Apr-15 20:30N 51°57' E 003°46'0 0.0
2018-Apr-15 20:00N 51°57' E 003°46'0 0.0
2018-Apr-15 19:30N 51°57' E 003°46'0 0.0
2018-Apr-15 19:00N 51°57' E 003°46'0 0.0
2018-Apr-15 18:30N 51°57' E 003°46'0 0.1
2018-Apr-15 18:00N 51°57' E 003°46'0 0.2
2018-Apr-15 17:30N 51°57' E 003°46'0 0.0
2018-Apr-15 15:21N 51°57' E 003°46'0 0.0
2018-Apr-15 14:57N 51°57' E 003°46'0 0.0
2018-Apr-15 14:27N 51°57' E 003°46'0 0.0
2018-Apr-15 13:57N 51°57' E 003°46'0 0.0
2018-Apr-15 13:30N 51°57' E 003°46'0 0.0
2018-Apr-15 13:00N 51°57' E 003°46'0 0.0
2018-Apr-15 12:30N 51°57' E 003°46'0 0.0
2018-Apr-15 12:00N 51°57' E 003°46'0 0.1
2018-Apr-15 11:30N 51°57' E 003°46'0 0.1
2018-Apr-15 11:00N 51°57' E 003°46'0 0.1
2018-Apr-15 10:27N 51°57' E 003°46'0 0.1
2018-Apr-15 09:57N 51°57' E 003°46'0 0.0
2018-Apr-15 09:30N 51°57' E 003°46'0 0.0
2018-Apr-15 09:00N 51°57' E 003°46'0 0.0
2018-Apr-15 08:30N 51°57' E 003°46'0 0.0
2018-Apr-15 08:00N 51°57' E 003°46'0 0.0
2018-Apr-15 07:30N 51°57' E 003°46'0 0.0
2018-Apr-15 07:00N 51°57' E 003°46'0 0.0
2018-Apr-15 06:30N 51°57' E 003°46'0 0.0
2018-Apr-15 06:00N 51°57' E 003°46'0 0.1
2018-Apr-15 05:30N 51°57' E 003°46'0 0.2
2018-Apr-15 05:00N 51°57' E 003°46'0 0.0
2018-Apr-15 03:36N 51°57' E 003°46'0 0.0
2018-Apr-15 03:06N 51°57' E 003°46'0 0.0
2018-Apr-15 02:21N 51°57' E 003°46'0 0.0
2018-Apr-15 01:51N 51°57' E 003°46'0 0.0
2018-Apr-15 01:30N 51°57' E 003°46'0 0.0
2018-Apr-15 01:00N 51°57' E 003°46'0 0.0
2018-Apr-15 00:27N 51°57' E 003°46'0 0.0
2018-Apr-15 00:00N 51°57' E 003°46'0 0.1
2018-Apr-14 23:30N 51°57' E 003°46'0 0.1
2018-Apr-14 22:57N 51°57' E 003°46'0 0.1
2018-Apr-14 22:30N 51°57' E 003°46'0 0.0
2018-Apr-14 22:00N 51°57' E 003°46'0 0.0
2018-Apr-14 21:30N 51°57' E 003°46'0 0.0
2018-Apr-14 21:00N 51°57' E 003°46'0 0.0
2018-Apr-14 20:30N 51°57' E 003°46'0 0.0
2018-Apr-14 19:57N 51°57' E 003°46'0 0.0
2018-Apr-14 19:30N 51°57' E 003°46'0 0.1
2018-Apr-14 19:00N 51°57' E 003°46'0 0.0
2018-Apr-14 18:30N 51°57' E 003°46'0 0.0
2018-Apr-14 18:00N 51°57' E 003°46'0 0.0
2018-Apr-14 17:30N 51°57' E 003°46'0 0.0
2018-Apr-14 17:00N 51°57' E 003°46'0 0.2
2018-Apr-14 16:30N 51°57' E 003°46'  

Dump ship's entire track history